createdAt,value
2018-12-03T00:02:12.929Z,15.80
2018-12-03T00:04:42.327Z,15.07
2018-12-03T00:07:11.480Z,14.97
2018-12-03T00:09:40.790Z,15.60
2018-12-03T00:12:10.266Z,15.17
2018-12-03T00:14:39.791Z,15.50
2018-12-03T00:17:09.042Z,14.47
2018-12-03T00:19:38.271Z,15.60
2018-12-03T00:22:07.715Z,15.27
2018-12-03T00:24:36.977Z,14.77
2018-12-03T00:27:06.365Z,13.90
2018-12-03T00:29:35.298Z,14.10
2018-12-03T00:32:04.750Z,13.43
2018-12-03T00:34:34.202Z,13.23
2018-12-03T00:37:03.781Z,13.87
2018-12-03T00:39:33.093Z,12.77
2018-12-03T00:42:02.471Z,13.17
2018-12-03T00:44:32.183Z,12.27
2018-12-03T00:47:01.420Z,12.30
2018-12-03T00:49:30.622Z,11.30
2018-12-03T00:51:59.914Z,11.00
2018-12-03T00:54:29.612Z,11.53
2018-12-03T00:56:58.866Z,12.50
2018-12-03T00:59:28.210Z,12.20
2018-12-03T01:01:58.495Z,10.53
2018-12-03T01:04:27.777Z,11.37
2018-12-03T01:06:57.336Z,11.07
2018-12-03T01:09:26.513Z,10.47
2018-12-03T01:11:56.154Z,11.40
2018-12-03T01:14:26.116Z,9.23
2018-12-03T01:16:55.212Z,10.90
2018-12-03T01:19:24.615Z,10.27
2018-12-03T01:21:54.280Z,10.57
2018-12-03T01:24:23.310Z,9.37
2018-12-03T01:26:52.255Z,8.73
2018-12-03T01:29:21.641Z,10.57
2018-12-03T01:31:50.950Z,10.00
2018-12-03T01:34:20.413Z,10.37
2018-12-03T01:36:49.799Z,9.20
2018-12-03T01:39:19.074Z,9.67
2018-12-03T01:41:48.353Z,9.00
2018-12-03T01:44:17.738Z,9.90
2018-12-03T01:46:46.945Z,9.30
2018-12-03T01:49:16.254Z,9.60
2018-12-03T01:51:46.560Z,11.37
2018-12-03T01:54:15.930Z,14.80
2018-12-03T01:56:45.074Z,9.87
2018-12-03T01:59:14.699Z,16.03
2018-12-03T02:01:43.909Z,18.07
2018-12-03T02:04:13.062Z,13.20
2018-12-03T02:06:42.564Z,10.47
2018-12-03T02:09:11.576Z,9.27
2018-12-03T02:11:40.814Z,8.37
2018-12-03T02:14:10.168Z,8.20
2018-12-03T02:16:39.475Z,8.27
2018-12-03T02:19:08.650Z,7.27
2018-12-03T02:21:37.875Z,8.20
2018-12-03T02:24:06.942Z,8.57
2018-12-03T02:26:36.153Z,8.60
2018-12-03T02:29:05.525Z,8.60
2018-12-03T02:31:35.102Z,9.23
2018-12-03T02:34:04.444Z,8.43
2018-12-03T02:36:34.093Z,8.60
2018-12-03T02:39:03.331Z,9.33
2018-12-03T02:41:32.471Z,10.83
2018-12-03T02:44:01.870Z,12.07
2018-12-03T02:46:30.842Z,9.67
2018-12-03T02:49:00.240Z,13.50
2018-12-03T02:51:29.566Z,8.87
2018-12-03T02:53:58.913Z,8.80
2018-12-03T02:56:28.130Z,8.77
2018-12-03T02:58:57.673Z,8.37
2018-12-03T03:01:26.839Z,9.23
2018-12-03T03:03:56.031Z,9.10
2018-12-03T03:06:25.210Z,8.53
2018-12-03T03:08:54.916Z,8.40
2018-12-03T03:11:24.138Z,8.20
2018-12-03T03:13:53.331Z,9.77
2018-12-03T03:16:22.732Z,8.30
2018-12-03T03:18:52.227Z,8.53
2018-12-03T03:21:21.411Z,8.67
2018-12-03T03:23:50.747Z,8.10
2018-12-03T03:26:19.787Z,7.43
2018-12-03T03:28:49.050Z,7.63
2018-12-03T03:31:18.188Z,7.70
2018-12-03T03:33:47.496Z,8.30
2018-12-03T03:36:17.686Z,7.37
2018-12-03T03:38:46.831Z,7.80
2018-12-03T03:41:15.979Z,7.67
2018-12-03T03:43:45.368Z,8.37
2018-12-03T03:46:14.874Z,6.53
2018-12-03T03:48:44.271Z,6.73
2018-12-03T03:51:13.844Z,5.97
2018-12-03T03:53:43.027Z,6.27
2018-12-03T03:56:12.402Z,6.40
2018-12-03T03:58:41.876Z,6.00
2018-12-03T04:01:11.243Z,6.13
2018-12-03T04:03:40.488Z,5.33
2018-12-03T04:06:09.766Z,6.10
2018-12-03T04:08:38.980Z,3.63
2018-12-03T04:11:08.228Z,4.93
2018-12-03T04:13:37.631Z,4.40
2018-12-03T04:16:07.143Z,5.17
2018-12-03T04:18:36.389Z,4.60
2018-12-03T04:21:05.863Z,4.43
2018-12-03T04:23:35.033Z,4.73
2018-12-03T04:26:04.515Z,4.03
2018-12-03T04:28:33.922Z,4.40
2018-12-03T04:31:03.387Z,4.27
2018-12-03T04:33:32.496Z,4.37
2018-12-03T04:36:01.962Z,4.00
2018-12-03T04:38:31.434Z,4.93
2018-12-03T04:41:00.666Z,4.80
2018-12-03T04:43:29.883Z,4.80
2018-12-03T04:45:59.131Z,4.20
2018-12-03T04:48:28.303Z,4.53
2018-12-03T04:50:57.834Z,4.07
2018-12-03T04:53:27.105Z,4.47
2018-12-03T04:55:56.536Z,3.90
2018-12-03T04:58:25.840Z,3.83
2018-12-03T05:00:54.979Z,4.13
2018-12-03T05:03:24.199Z,3.97
2018-12-03T05:05:53.538Z,4.20
2018-12-03T05:08:22.828Z,4.10
2018-12-03T05:13:27.236Z,5.37
2018-12-03T05:15:56.598Z,13.33
2018-12-03T05:18:26.138Z,5.07
2018-12-03T05:20:55.792Z,4.57
2018-12-03T05:23:25.146Z,4.33
2018-12-03T05:25:54.847Z,4.00
2018-12-03T05:28:24.191Z,3.93
2018-12-03T05:30:53.480Z,3.83
2018-12-03T05:33:22.783Z,3.70
2018-12-03T05:35:51.987Z,3.73
2018-12-03T05:38:21.199Z,3.90
2018-12-03T05:40:50.526Z,4.17
2018-12-03T05:43:19.812Z,4.00
2018-12-03T05:45:48.954Z,4.30
2018-12-03T05:48:18.147Z,4.47
2018-12-03T05:50:47.491Z,4.90
2018-12-03T05:53:16.598Z,5.07
2018-12-03T05:55:45.846Z,4.87
2018-12-03T05:58:15.446Z,5.80
2018-12-03T06:00:44.655Z,6.00
2018-12-03T06:03:13.979Z,5.17
2018-12-03T06:05:43.346Z,6.10
2018-12-03T06:08:12.464Z,7.30
2018-12-03T06:10:41.679Z,6.80
2018-12-03T06:13:10.823Z,7.73
2018-12-03T06:15:40.043Z,10.63
2018-12-03T06:18:09.196Z,6.47
2018-12-03T06:20:38.477Z,8.17
2018-12-03T06:23:07.445Z,7.40
2018-12-03T06:25:36.622Z,7.67
2018-12-03T06:28:06.275Z,21.20
2018-12-03T06:30:35.301Z,23.37
2018-12-03T06:33:04.539Z,14.83
2018-12-03T06:35:34.017Z,19.90
2018-12-03T06:38:03.329Z,17.80
2018-12-03T06:40:32.485Z,14.93
2018-12-03T06:43:01.898Z,13.20
2018-12-03T06:45:31.226Z,15.23
2018-12-03T06:48:03.694Z,14.60
2018-12-03T06:50:32.895Z,32.53
2018-12-03T06:53:02.279Z,29.00
2018-12-03T06:55:32.543Z,27.13
2018-12-03T06:58:01.667Z,27.60
2018-12-03T07:00:31.115Z,31.20
2018-12-03T07:03:00.647Z,38.57
2018-12-03T07:05:30.011Z,48.20
2018-12-03T07:08:00.350Z,49.27
2018-12-03T07:10:29.634Z,42.37
2018-12-03T07:13:03.092Z,47.67
2018-12-03T07:15:33.783Z,45.57
2018-12-03T07:18:03.122Z,41.53
2018-12-03T07:20:32.335Z,41.07
2018-12-03T07:23:01.565Z,38.63
2018-12-03T07:25:30.980Z,41.97
2018-12-03T07:28:00.229Z,41.83
2018-12-03T07:30:29.485Z,41.70
2018-12-03T07:32:58.843Z,40.90
2018-12-03T07:35:28.071Z,40.47
2018-12-03T07:37:57.553Z,43.40
2018-12-03T07:40:26.858Z,49.20
2018-12-03T07:42:56.345Z,52.50
2018-12-03T07:45:26.312Z,55.30
2018-12-03T07:47:55.496Z,74.30
2018-12-03T07:50:25.268Z,79.77
2018-12-03T07:52:54.787Z,67.57
2018-12-03T07:55:25.264Z,73.07
2018-12-03T07:58:00.862Z,67.83
2018-12-03T08:00:37.150Z,60.63
2018-12-03T08:03:06.701Z,42.80
2018-12-03T08:05:35.880Z,50.73
2018-12-03T08:08:05.043Z,47.27
2018-12-03T08:10:34.670Z,47.00
2018-12-03T08:13:03.934Z,38.97
2018-12-03T08:15:33.304Z,34.73
2018-12-03T08:18:04.254Z,34.13
2018-12-03T08:20:38.560Z,33.53
2018-12-03T08:23:10.530Z,32.37
2018-12-03T08:25:40.174Z,34.13
2018-12-03T08:28:09.183Z,34.03
2018-12-03T08:30:38.486Z,41.30
2018-12-03T08:33:07.804Z,39.90
2018-12-03T08:35:37.214Z,39.17
2018-12-03T08:38:06.906Z,42.83
2018-12-03T08:40:36.012Z,44.27
2018-12-03T08:43:05.255Z,39.80
2018-12-03T08:45:34.648Z,38.77
2018-12-03T08:48:03.982Z,32.97
2018-12-03T08:50:33.599Z,32.70
2018-12-03T08:53:02.971Z,25.73
2018-12-03T08:55:32.673Z,9.20
2018-12-03T08:58:02.332Z,7.30
2018-12-03T09:00:31.681Z,7.20
2018-12-03T09:03:20.903Z,6.80
2018-12-03T09:05:50.532Z,6.43
2018-12-03T09:08:20.121Z,7.53
2018-12-03T09:10:49.454Z,8.80
2018-12-03T09:13:21.079Z,10.53
2018-12-03T09:15:59.778Z,8.37
2018-12-03T09:18:38.945Z,8.63
2018-12-03T09:21:11.323Z,8.20
2018-12-03T09:23:41.552Z,8.00
2018-12-03T09:26:10.968Z,7.30
2018-12-03T09:28:40.232Z,8.37
2018-12-03T09:31:09.546Z,7.30
2018-12-03T09:33:38.910Z,6.90
2018-12-03T09:36:08.504Z,7.00
2018-12-03T09:38:48.971Z,7.37
2018-12-03T09:41:18.133Z,7.50
2018-12-03T09:43:47.478Z,7.67
2018-12-03T09:46:16.956Z,8.90
2018-12-03T09:48:46.038Z,10.50
2018-12-03T09:51:15.467Z,8.40
2018-12-03T09:53:45.140Z,7.20
2018-12-03T09:56:14.436Z,7.47
2018-12-03T09:58:43.887Z,7.67
2018-12-03T10:01:13.248Z,7.77
2018-12-03T10:03:44.518Z,7.33
2018-12-03T10:06:16.538Z,7.80
2018-12-03T10:08:46.150Z,8.13
2018-12-03T10:11:15.376Z,7.97
2018-12-03T10:13:44.554Z,8.47
2018-12-03T10:16:13.798Z,7.47
2018-12-03T10:18:47.512Z,8.07
2018-12-03T10:21:16.816Z,7.07
2018-12-03T10:23:46.246Z,6.97
2018-12-03T10:26:15.506Z,6.77
2018-12-03T10:28:44.651Z,6.83
2018-12-03T10:31:14.541Z,6.57
2018-12-03T10:33:43.985Z,6.43
2018-12-03T10:36:13.338Z,6.10
2018-12-03T10:38:44.398Z,6.23
2018-12-03T10:41:23.264Z,6.07
2018-12-03T10:43:53.122Z,8.03
2018-12-03T10:46:22.495Z,6.47
2018-12-03T10:48:52.670Z,6.47
2018-12-03T10:51:21.967Z,5.63
2018-12-03T10:53:51.094Z,6.40
2018-12-03T10:56:20.395Z,13.03
2018-12-03T10:58:49.570Z,13.53
2018-12-03T11:01:24.343Z,6.77
2018-12-03T11:03:59.131Z,8.10
2018-12-03T11:06:28.255Z,10.37
2018-12-03T11:08:57.956Z,11.57
2018-12-03T11:11:27.452Z,4.37
2018-12-03T11:14:03.585Z,6.07
2018-12-03T11:16:35.249Z,5.77
2018-12-03T11:19:04.513Z,8.10
2018-12-03T11:21:34.330Z,5.20
2018-12-03T11:24:03.706Z,6.57
2018-12-03T11:26:39.463Z,5.40
2018-12-03T11:29:09.427Z,5.37
2018-12-03T11:31:38.847Z,6.33
2018-12-03T11:34:07.856Z,6.70
2018-12-03T11:36:43.487Z,6.90
2018-12-03T11:39:20.011Z,9.47
2018-12-03T11:41:51.110Z,7.63
2018-12-03T11:44:20.424Z,7.70
2018-12-03T11:46:49.918Z,8.40
2018-12-03T11:49:19.303Z,15.97
2018-12-03T11:51:48.852Z,10.57
2018-12-03T11:54:18.232Z,12.70
2018-12-03T11:56:48.043Z,7.13
2018-12-03T11:59:17.195Z,6.67
2018-12-03T12:01:46.586Z,6.43
2018-12-03T12:04:15.725Z,6.30
2018-12-03T12:06:44.982Z,6.47
2018-12-03T12:09:14.361Z,6.60
2018-12-03T12:11:43.616Z,6.77
2018-12-03T12:14:18.858Z,6.33
2018-12-03T12:16:48.089Z,8.37
2018-12-03T12:19:17.284Z,6.87
2018-12-03T12:21:46.661Z,6.00
2018-12-03T12:24:16.191Z,5.10
2018-12-03T12:26:45.575Z,4.90
2018-12-03T12:29:14.878Z,5.23
2018-12-03T12:31:44.168Z,5.33
2018-12-03T12:34:13.587Z,5.37
2018-12-03T12:36:42.772Z,5.20
2018-12-03T12:39:12.339Z,6.00
2018-12-03T12:41:42.027Z,6.63
2018-12-03T12:44:11.994Z,6.80
2018-12-03T12:46:44.670Z,5.50
2018-12-03T12:49:14.209Z,13.20
2018-12-03T12:51:43.379Z,9.87
2018-12-03T12:54:12.560Z,6.40
2018-12-03T12:56:41.794Z,8.37
2018-12-03T12:59:10.963Z,6.40
2018-12-03T13:01:40.191Z,8.03
2018-12-03T13:04:09.453Z,7.67
2018-12-03T13:06:38.611Z,6.30
2018-12-03T13:09:10.182Z,6.90
2018-12-03T13:11:40.171Z,6.63
2018-12-03T13:14:11.297Z,6.67
2018-12-03T13:16:41.144Z,6.37
2018-12-03T13:19:10.957Z,6.00
2018-12-03T13:21:40.435Z,5.70
2018-12-03T13:24:10.015Z,5.87
2018-12-03T13:26:41.741Z,5.87
2018-12-03T13:29:11.140Z,5.07
2018-12-03T13:31:40.380Z,6.17
2018-12-03T13:34:09.855Z,6.20
2018-12-03T13:36:39.247Z,7.53
2018-12-03T13:39:09.652Z,6.87
2018-12-03T13:41:38.990Z,7.23
2018-12-03T13:44:09.359Z,7.03
2018-12-03T13:46:38.703Z,7.27
2018-12-03T13:49:08.599Z,5.80
2018-12-03T13:51:37.857Z,5.30
2018-12-03T13:54:07.351Z,5.50
2018-12-03T13:56:36.620Z,7.07
2018-12-03T13:59:06.478Z,5.90
2018-12-03T14:01:35.755Z,6.90
2018-12-03T14:04:12.304Z,5.20
2018-12-03T14:07:21.479Z,5.50
2018-12-03T14:09:59.626Z,12.30
2018-12-03T14:12:42.806Z,5.00
2018-12-03T14:15:30.979Z,3.30
2018-12-03T14:18:09.466Z,4.40
2018-12-03T14:20:41.092Z,4.10
2018-12-03T14:23:13.019Z,4.43
2018-12-03T14:25:42.252Z,4.13
2018-12-03T14:28:11.344Z,4.20
2018-12-03T14:30:40.523Z,6.50
2018-12-03T14:33:09.990Z,5.40
2018-12-03T14:35:39.483Z,5.43
2018-12-03T14:38:08.683Z,6.47
2018-12-03T14:40:37.857Z,6.40
2018-12-03T14:43:07.570Z,7.63
2018-12-03T14:45:36.710Z,7.43
2018-12-03T14:48:05.833Z,9.10
2018-12-03T14:50:34.979Z,28.73
2018-12-03T14:53:07.798Z,10.90
2018-12-03T14:55:34.154Z,15.30
2018-12-03T14:58:03.350Z,15.20
2018-12-03T15:00:32.686Z,14.13
2018-12-03T15:03:01.924Z,13.23
2018-12-03T15:05:31.116Z,7.50
2018-12-03T15:08:00.233Z,7.20
2018-12-03T15:10:29.606Z,9.47
2018-12-03T15:12:59.056Z,7.30
2018-12-03T15:15:28.437Z,6.20
2018-12-03T15:17:58.051Z,5.70
2018-12-03T15:20:27.403Z,7.93
2018-12-03T15:22:56.815Z,6.73
2018-12-03T15:25:26.115Z,8.13
2018-12-03T15:27:55.411Z,8.63
2018-12-03T15:30:24.749Z,7.73
2018-12-03T15:32:54.116Z,8.97
2018-12-03T15:35:23.651Z,12.33
2018-12-03T15:37:53.046Z,11.67
2018-12-03T15:40:22.445Z,9.40
2018-12-03T15:42:51.650Z,11.00
2018-12-03T15:45:20.879Z,10.17
2018-12-03T15:47:50.358Z,10.87
2018-12-03T15:50:19.709Z,11.20
2018-12-03T15:52:49.308Z,11.37
2018-12-03T15:55:18.815Z,10.80
2018-12-03T15:57:48.334Z,10.93
2018-12-03T16:00:17.827Z,9.97
2018-12-03T16:02:46.963Z,9.97
2018-12-03T16:05:18.568Z,11.10
2018-12-03T16:07:47.682Z,9.93
2018-12-03T16:10:17.168Z,8.50
2018-12-03T16:12:47.031Z,6.80
2018-12-03T16:15:16.463Z,7.10
2018-12-03T16:17:45.781Z,7.57
2018-12-03T16:20:15.515Z,9.30
2018-12-03T16:22:44.839Z,7.17
2018-12-03T16:25:14.449Z,7.50
2018-12-03T16:27:43.727Z,6.27
2018-12-03T16:30:16.464Z,9.40
2018-12-03T16:32:46.031Z,7.83
2018-12-03T16:35:15.475Z,5.27
2018-12-03T16:37:44.763Z,5.40
2018-12-03T16:40:14.598Z,4.83
2018-12-03T16:42:44.303Z,4.10
2018-12-03T16:45:14.061Z,8.67
2018-12-03T16:47:43.539Z,5.80
2018-12-03T16:50:14.215Z,8.80
2018-12-03T16:52:43.606Z,6.10
2018-12-03T16:55:13.111Z,6.40
2018-12-03T16:57:42.337Z,4.70
2018-12-03T17:00:13.375Z,8.30
2018-12-03T17:02:43.104Z,135.83
2018-12-03T17:05:12.438Z,25.20
2018-12-03T17:07:42.288Z,5.53
2018-12-03T17:10:13.827Z,5.47
2018-12-03T17:12:43.189Z,5.03
2018-12-03T17:15:12.570Z,4.17
2018-12-03T17:17:42.125Z,5.90
2018-12-03T17:20:35.755Z,6.07
2018-12-03T17:23:31.062Z,6.60
2018-12-03T17:26:00.655Z,8.37
2018-12-03T17:28:29.838Z,16.63
2018-12-03T17:30:59.363Z,16.90
2018-12-03T17:33:28.718Z,13.20
2018-12-03T17:35:57.839Z,32.50
2018-12-03T17:38:27.106Z,11.67
2018-12-03T17:40:56.516Z,10.37
2018-12-03T17:43:25.970Z,10.33
2018-12-03T17:45:55.065Z,9.03
2018-12-03T17:48:24.553Z,12.20
2018-12-03T17:50:53.859Z,13.20
2018-12-03T17:53:23.519Z,26.40
2018-12-03T17:55:53.015Z,12.70
2018-12-03T17:58:22.580Z,11.63
2018-12-03T18:00:51.842Z,13.43
2018-12-03T18:03:21.320Z,8.90
2018-12-03T18:05:50.758Z,8.23
2018-12-03T18:08:20.303Z,11.67
2018-12-03T18:10:49.993Z,15.73
2018-12-03T18:13:19.567Z,10.53
2018-12-03T18:15:48.892Z,10.00
2018-12-03T18:18:18.819Z,7.70
2018-12-03T18:20:47.914Z,14.83
2018-12-03T18:23:17.147Z,20.90
2018-12-03T18:25:46.570Z,11.73
2018-12-03T18:28:15.787Z,20.43
2018-12-03T18:30:45.506Z,18.90
2018-12-03T18:33:15.245Z,10.17
2018-12-03T18:35:44.383Z,10.67
2018-12-03T18:38:14.119Z,10.33
2018-12-03T18:40:43.743Z,12.43
2018-12-03T18:43:13.114Z,14.23
2018-12-03T18:45:42.320Z,11.67
2018-12-03T18:48:13.096Z,12.00
2018-12-03T18:50:44.539Z,13.23
2018-12-03T18:53:23.041Z,15.07
2018-12-03T18:55:52.415Z,21.30
2018-12-03T18:58:29.031Z,15.37
2018-12-03T19:00:58.805Z,27.57
2018-12-03T19:03:27.927Z,12.27
2018-12-03T19:05:57.553Z,10.17
2018-12-03T19:08:26.975Z,8.63
2018-12-03T19:10:56.514Z,7.27
2018-12-03T19:13:26.306Z,8.50
2018-12-03T19:15:55.809Z,7.77
2018-12-03T19:18:25.744Z,7.43
2018-12-03T19:20:55.503Z,5.97
2018-12-03T19:23:25.350Z,29.77
2018-12-03T19:25:55.058Z,33.90
2018-12-03T19:28:24.348Z,30.90
2018-12-03T19:30:53.702Z,30.73
2018-12-03T19:33:23.119Z,42.90
2018-12-03T19:35:52.377Z,42.07
2018-12-03T19:38:22.271Z,66.67
2018-12-03T19:40:51.799Z,49.10
2018-12-03T19:43:21.211Z,10.23
2018-12-03T19:45:51.845Z,9.23
2018-12-03T19:48:21.190Z,21.20
2018-12-03T19:50:50.523Z,17.33
2018-12-03T19:53:19.648Z,45.23
2018-12-03T19:55:49.487Z,32.70
2018-12-03T19:58:22.868Z,37.47
2018-12-03T20:00:52.103Z,36.07
2018-12-03T20:03:21.448Z,45.30
2018-12-03T20:05:50.659Z,33.90
2018-12-03T20:08:19.893Z,9.67
2018-12-03T20:10:49.659Z,9.27
2018-12-03T20:13:20.208Z,9.13
2018-12-03T20:15:48.611Z,14.70
2018-12-03T20:18:18.129Z,9.40
2018-12-03T20:20:58.458Z,8.70
2018-12-03T20:23:32.469Z,8.27
2018-12-03T20:26:07.028Z,9.13
2018-12-03T20:29:45.866Z,9.23
2018-12-03T20:32:25.137Z,24.43
2018-12-03T20:35:06.966Z,28.97
2018-12-03T20:40:19.774Z,27.80
2018-12-03T20:42:53.463Z,11.30
2018-12-03T20:45:41.287Z,11.73
2018-12-03T20:48:11.334Z,12.10
2018-12-03T20:50:48.776Z,10.10
2018-12-03T20:53:28.948Z,9.33
2018-12-03T20:55:59.255Z,9.93
2018-12-03T20:58:28.763Z,11.77
2018-12-03T21:00:58.072Z,12.03
2018-12-03T21:03:27.340Z,14.87
2018-12-03T21:05:56.547Z,16.47
2018-12-03T21:08:25.746Z,20.20
2018-12-03T21:10:55.282Z,13.50
2018-12-03T21:13:24.758Z,11.47
2018-12-03T21:15:54.480Z,9.10
2018-12-03T21:18:23.859Z,33.00
2018-12-03T21:20:53.318Z,48.70
2018-12-03T21:23:22.553Z,20.73
2018-12-03T21:25:51.947Z,9.73
2018-12-03T21:28:21.323Z,9.07
2018-12-03T21:30:50.730Z,11.00
2018-12-03T21:33:20.297Z,8.60
2018-12-03T21:35:49.740Z,9.93
2018-12-03T21:38:19.271Z,11.47
2018-12-03T21:40:48.634Z,11.13
2018-12-03T21:43:18.736Z,10.67
2018-12-03T21:45:48.531Z,14.20
2018-12-03T21:48:18.038Z,12.73
2018-12-03T21:51:27.389Z,11.40
2018-12-03T21:53:54.931Z,11.60
2018-12-03T21:56:22.606Z,15.33
2018-12-03T21:58:50.208Z,21.30
2018-12-03T22:01:17.806Z,15.20
2018-12-03T22:03:45.600Z,13.27
2018-12-03T22:06:13.771Z,17.60
2018-12-03T22:08:41.330Z,21.07
2018-12-03T22:11:09.197Z,20.17
2018-12-03T22:13:37.140Z,19.13
2018-12-03T22:16:04.953Z,19.47
2018-12-03T22:18:32.880Z,22.00
2018-12-03T22:21:00.996Z,24.23
2018-12-03T22:23:28.596Z,30.60
2018-12-03T22:25:56.488Z,31.33
2018-12-03T22:28:24.160Z,27.27
2018-12-03T22:30:52.413Z,26.87
2018-12-03T22:33:20.500Z,29.67
2018-12-03T22:35:48.366Z,26.90
2018-12-03T22:38:16.015Z,33.97
2018-12-03T22:40:43.609Z,39.13
2018-12-03T22:43:11.480Z,53.87
2018-12-03T22:45:39.104Z,72.20
2018-12-03T22:48:06.839Z,71.27
2018-12-03T22:50:34.570Z,68.97
2018-12-03T22:53:02.417Z,66.47
2018-12-03T22:55:30.230Z,65.67
2018-12-03T22:57:58.045Z,66.20
2018-12-03T23:00:33.198Z,65.57
2018-12-03T23:03:01.091Z,71.57
2018-12-03T23:05:28.910Z,64.70
2018-12-03T23:07:57.073Z,73.37
2018-12-03T23:10:24.777Z,71.10
2018-12-03T23:12:52.661Z,70.23
2018-12-03T23:15:20.323Z,72.30
2018-12-03T23:17:48.188Z,70.93
2018-12-03T23:20:16.054Z,73.17
2018-12-03T23:22:43.707Z,75.03
2018-12-03T23:25:11.300Z,71.63
2018-12-03T23:27:39.162Z,68.60
2018-12-03T23:30:07.512Z,72.40
2018-12-03T23:32:35.220Z,66.83
2018-12-03T23:35:02.782Z,60.53
2018-12-03T23:37:30.318Z,18.13
2018-12-03T23:39:57.887Z,32.47
2018-12-03T23:42:25.430Z,49.57
2018-12-03T23:44:53.071Z,42.00
2018-12-03T23:47:20.808Z,35.07
2018-12-03T23:49:48.530Z,42.27
2018-12-03T23:52:16.710Z,31.37
2018-12-03T23:54:44.623Z,32.03
2018-12-03T23:57:12.367Z,35.50
2018-12-03T23:59:39.898Z,24.30
